sensor_id;sensor_type;location;lat;lon;timestamp;P1;durP1;ratioP1;P2;durP2;ratioP2
39948;SDS011;29070;48.102;-1.652;2023-05-16T00:00:32;9.18;;;1.88;;
39948;SDS011;29070;48.102;-1.652;2023-05-16T00:05:34;3.28;;;1.50;;
39948;SDS011;29070;48.102;-1.652;2023-05-16T00:10:35;5.13;;;1.83;;
39948;SDS011;29070;48.102;-1.652;2023-05-16T00:15:36;7.25;;;1.42;;
39948;SDS011;29070;48.102;-1.652;2023-05-16T00:20:37;7.93;;;2.13;;
39948;SDS011;29070;48.102;-1.652;2023-05-16T00:25:37;7.23;;;1.80;;
39948;SDS011;29070;48.102;-1.652;2023-05-16T00:30:38;7.97;;;2.60;;
39948;SDS011;29070;48.102;-1.652;2023-05-16T00:35:38;9.93;;;2.17;;
39948;SDS011;29070;48.102;-1.652;2023-05-16T00:40:39;5.38;;;2.15;;
39948;SDS011;29070;48.102;-1.652;2023-05-16T00:45:39;9.55;;;2.13;;
39948;SDS011;29070;48.102;-1.652;2023-05-16T00:50:40;7.17;;;1.97;;
39948;SDS011;29070;48.102;-1.652;2023-05-16T00:55:41;6.13;;;2.03;;
39948;SDS011;29070;48.102;-1.652;2023-05-16T01:00:41;5.03;;;2.03;;
39948;SDS011;29070;48.102;-1.652;2023-05-16T01:05:43;10.68;;;1.88;;
39948;SDS011;29070;48.102;-1.652;2023-05-16T01:16:32;5.75;;;1.63;;
39948;SDS011;29070;48.102;-1.652;2023-05-16T01:21:41;7.05;;;2.42;;
39948;SDS011;29070;48.102;-1.652;2023-05-16T01:26:49;6.70;;;2.10;;
39948;SDS011;29070;48.102;-1.652;2023-05-16T01:31:51;3.97;;;1.90;;
39948;SDS011;29070;48.102;-1.652;2023-05-16T01:42:08;8.48;;;2.10;;
39948;SDS011;29070;48.102;-1.652;2023-05-16T01:47:13;5.65;;;1.58;;
39948;SDS011;29070;48.102;-1.652;2023-05-16T01:52:21;4.18;;;1.65;;
39948;SDS011;29070;48.102;-1.652;2023-05-16T01:57:34;5.20;;;1.75;;
39948;SDS011;29070;48.102;-1.652;2023-05-16T02:02:35;5.88;;;1.88;;
39948;SDS011;29070;48.102;-1.652;2023-05-16T02:07:35;8.93;;;1.43;;
39948;SDS011;29070;48.102;-1.652;2023-05-16T02:12:35;5.85;;;1.60;;
39948;SDS011;29070;48.102;-1.652;2023-05-16T02:17:36;4.25;;;1.67;;
39948;SDS011;29070;48.102;-1.652;2023-05-16T02:22:36;6.70;;;1.53;;
39948;SDS011;29070;48.102;-1.652;2023-05-16T02:27:38;5.40;;;2.20;;
39948;SDS011;29070;48.102;-1.652;2023-05-16T02:32:38;4.83;;;2.17;;
39948;SDS011;29070;48.102;-1.652;2023-05-16T02:37:40;3.67;;;1.67;;
39948;SDS011;29070;48.102;-1.652;2023-05-16T02:42:41;4.80;;;1.73;;
39948;SDS011;29070;48.102;-1.652;2023-05-16T02:47:41;5.07;;;2.10;;
39948;SDS011;29070;48.102;-1.652;2023-05-16T02:52:42;5.47;;;1.73;;
39948;SDS011;29070;48.102;-1.652;2023-05-16T02:57:42;4.63;;;1.50;;
39948;SDS011;29070;48.102;-1.652;2023-05-16T03:02:43;3.55;;;1.50;;
39948;SDS011;29070;48.102;-1.652;2023-05-16T03:07:44;5.90;;;2.40;;
39948;SDS011;29070;48.102;-1.652;2023-05-16T03:12:44;8.47;;;3.00;;
39948;SDS011;29070;48.102;-1.652;2023-05-16T03:17:45;6.20;;;2.22;;
39948;SDS011;29070;48.102;-1.652;2023-05-16T03:22:45;6.27;;;2.30;;
39948;SDS011;29070;48.102;-1.652;2023-05-16T03:27:46;4.20;;;1.90;;
39948;SDS011;29070;48.102;-1.652;2023-05-16T03:32:46;3.07;;;1.87;;
39948;SDS011;29070;48.102;-1.652;2023-05-16T03:37:46;5.53;;;2.40;;
39948;SDS011;29070;48.102;-1.652;2023-05-16T03:42:47;9.67;;;3.23;;
39948;SDS011;29070;48.102;-1.652;2023-05-16T03:47:47;8.30;;;3.13;;
39948;SDS011;29070;48.102;-1.652;2023-05-16T03:52:48;6.38;;;3.22;;
39948;SDS011;29070;48.102;-1.652;2023-05-16T03:57:49;7.72;;;2.45;;
39948;SDS011;29070;48.102;-1.652;2023-05-16T04:02:51;3.13;;;1.83;;
39948;SDS011;29070;48.102;-1.652;2023-05-16T04:07:51;6.27;;;2.80;;
39948;SDS011;29070;48.102;-1.652;2023-05-16T04:12:52;4.47;;;2.00;;
39948;SDS011;29070;48.102;-1.652;2023-05-16T04:17:52;4.57;;;1.80;;
39948;SDS011;29070;48.102;-1.652;2023-05-16T04:22:52;6.57;;;1.95;;
39948;SDS011;29070;48.102;-1.652;2023-05-16T04:27:53;6.77;;;1.80;;
39948;SDS011;29070;48.102;-1.652;2023-05-16T04:32:53;7.63;;;1.93;;
39948;SDS011;29070;48.102;-1.652;2023-05-16T04:37:54;3.28;;;1.67;;
39948;SDS011;29070;48.102;-1.652;2023-05-16T04:42:54;5.97;;;1.83;;
39948;SDS011;29070;48.102;-1.652;2023-05-16T04:47:55;5.53;;;2.07;;
39948;SDS011;29070;48.102;-1.652;2023-05-16T04:52:55;6.68;;;2.22;;
39948;SDS011;29070;48.102;-1.652;2023-05-16T04:57:56;6.93;;;2.20;;
39948;SDS011;29070;48.102;-1.652;2023-05-16T05:02:56;9.00;;;2.60;;
39948;SDS011;29070;48.102;-1.652;2023-05-16T05:07:57;7.87;;;2.43;;
39948;SDS011;29070;48.102;-1.652;2023-05-16T05:12:57;3.75;;;2.20;;
39948;SDS011;29070;48.102;-1.652;2023-05-16T05:17:58;6.80;;;2.17;;
39948;SDS011;29070;48.102;-1.652;2023-05-16T05:22:58;7.57;;;2.73;;
39948;SDS011;29070;48.102;-1.652;2023-05-16T05:27:58;6.13;;;2.40;;
39948;SDS011;29070;48.102;-1.652;2023-05-16T05:32:59;5.97;;;2.50;;
39948;SDS011;29070;48.102;-1.652;2023-05-16T05:37:59;6.65;;;2.53;;
39948;SDS011;29070;48.102;-1.652;2023-05-16T05:43:00;9.65;;;2.88;;
39948;SDS011;29070;48.102;-1.652;2023-05-16T05:48:00;10.43;;;3.58;;
39948;SDS011;29070;48.102;-1.652;2023-05-16T05:53:01;6.50;;;3.00;;
39948;SDS011;29070;48.102;-1.652;2023-05-16T05:58:01;7.15;;;3.33;;
39948;SDS011;29070;48.102;-1.652;2023-05-16T06:03:02;8.77;;;3.35;;
39948;SDS011;29070;48.102;-1.652;2023-05-16T06:08:02;9.68;;;3.45;;
39948;SDS011;29070;48.102;-1.652;2023-05-16T06:13:03;7.30;;;3.33;;
39948;SDS011;29070;48.102;-1.652;2023-05-16T06:18:03;6.20;;;3.72;;
39948;SDS011;29070;48.102;-1.652;2023-05-16T06:23:03;8.93;;;4.00;;
39948;SDS011;29070;48.102;-1.652;2023-05-16T06:28:04;7.20;;;3.25;;
39948;SDS011;29070;48.102;-1.652;2023-05-16T06:33:04;7.03;;;2.80;;
39948;SDS011;29070;48.102;-1.652;2023-05-16T06:38:05;11.75;;;3.53;;
39948;SDS011;29070;48.102;-1.652;2023-05-16T06:43:05;9.47;;;3.20;;
39948;SDS011;29070;48.102;-1.652;2023-05-16T06:48:06;10.32;;;3.20;;
39948;SDS011;29070;48.102;-1.652;2023-05-16T06:53:07;5.72;;;3.47;;
39948;SDS011;29070;48.102;-1.652;2023-05-16T06:58:07;11.07;;;3.37;;
39948;SDS011;29070;48.102;-1.652;2023-05-16T07:03:08;7.03;;;2.95;;
39948;SDS011;29070;48.102;-1.652;2023-05-16T07:08:08;7.03;;;2.40;;
39948;SDS011;29070;48.102;-1.652;2023-05-16T07:13:09;7.78;;;2.78;;
39948;SDS011;29070;48.102;-1.652;2023-05-16T07:18:10;9.77;;;2.70;;
39948;SDS011;29070;48.102;-1.652;2023-05-16T07:23:10;7.18;;;2.25;;
39948;SDS011;29070;48.102;-1.652;2023-05-16T07:28:11;11.67;;;2.30;;
39948;SDS011;29070;48.102;-1.652;2023-05-16T07:33:11;6.63;;;1.70;;
39948;SDS011;29070;48.102;-1.652;2023-05-16T07:38:11;6.27;;;1.67;;
39948;SDS011;29070;48.102;-1.652;2023-05-16T07:43:12;7.32;;;2.08;;
39948;SDS011;29070;48.102;-1.652;2023-05-16T07:48:12;10.70;;;2.13;;
39948;SDS011;29070;48.102;-1.652;2023-05-16T07:53:13;11.33;;;1.53;;
39948;SDS011;29070;48.102;-1.652;2023-05-16T07:58:13;5.83;;;1.67;;
39948;SDS011;29070;48.102;-1.652;2023-05-16T08:03:14;4.85;;;2.05;;
39948;SDS011;29070;48.102;-1.652;2023-05-16T08:08:14;5.93;;;1.40;;
39948;SDS011;29070;48.102;-1.652;2023-05-16T08:13:15;4.97;;;1.77;;
39948;SDS011;29070;48.102;-1.652;2023-05-16T08:18:15;5.60;;;1.30;;
39948;SDS011;29070;48.102;-1.652;2023-05-16T08:23:15;8.63;;;1.43;;
39948;SDS011;29070;48.102;-1.652;2023-05-16T08:28:16;8.70;;;1.80;;
39948;SDS011;29070;48.102;-1.652;2023-05-16T08:33:16;2.30;;;0.97;;
39948;SDS011;29070;48.102;-1.652;2023-05-16T08:38:16;3.07;;;0.87;;
39948;SDS011;29070;48.102;-1.652;2023-05-16T08:43:17;5.22;;;0.93;;
39948;SDS011;29070;48.102;-1.652;2023-05-16T08:48:18;3.63;;;1.07;;
39948;SDS011;29070;48.102;-1.652;2023-05-16T08:53:24;8.23;;;1.77;;
39948;SDS011;29070;48.102;-1.652;2023-05-16T08:58:30;3.60;;;0.90;;
39948;SDS011;29070;48.102;-1.652;2023-05-16T09:03:31;4.85;;;0.88;;
39948;SDS011;29070;48.102;-1.652;2023-05-16T09:08:31;2.15;;;0.70;;
39948;SDS011;29070;48.102;-1.652;2023-05-16T09:13:32;5.30;;;0.95;;
39948;SDS011;29070;48.102;-1.652;2023-05-16T09:18:32;4.97;;;0.90;;
39948;SDS011;29070;48.102;-1.652;2023-05-16T09:23:34;3.88;;;1.00;;
39948;SDS011;29070;48.102;-1.652;2023-05-16T09:28:38;4.25;;;0.98;;
39948;SDS011;29070;48.102;-1.652;2023-05-16T09:33:40;2.92;;;0.90;;
39948;SDS011;29070;48.102;-1.652;2023-05-16T09:38:41;4.38;;;1.20;;
39948;SDS011;29070;48.102;-1.652;2023-05-16T09:43:42;1.73;;;1.00;;
39948;SDS011;29070;48.102;-1.652;2023-05-16T09:48:45;3.38;;;0.90;;
39948;SDS011;29070;48.102;-1.652;2023-05-16T09:53:46;5.32;;;1.20;;
39948;SDS011;29070;48.102;-1.652;2023-05-16T09:58:47;3.55;;;1.00;;
39948;SDS011;29070;48.102;-1.652;2023-05-16T10:03:51;2.88;;;0.95;;
39948;SDS011;29070;48.102;-1.652;2023-05-16T10:08:51;5.43;;;0.90;;
39948;SDS011;29070;48.102;-1.652;2023-05-16T10:13:52;3.03;;;0.90;;
39948;SDS011;29070;48.102;-1.652;2023-05-16T10:18:52;3.60;;;1.00;;
39948;SDS011;29070;48.102;-1.652;2023-05-16T10:23:54;3.42;;;1.40;;
39948;SDS011;29070;48.102;-1.652;2023-05-16T10:28:57;2.00;;;0.70;;
39948;SDS011;29070;48.102;-1.652;2023-05-16T10:34:00;4.78;;;0.85;;
39948;SDS011;29070;48.102;-1.652;2023-05-16T10:39:01;2.08;;;1.42;;
39948;SDS011;29070;48.102;-1.652;2023-05-16T10:44:03;2.25;;;1.00;;
39948;SDS011;29070;48.102;-1.652;2023-05-16T10:49:23;5.30;;;1.20;;
39948;SDS011;29070;48.102;-1.652;2023-05-16T10:54:32;3.38;;;1.00;;
39948;SDS011;29070;48.102;-1.652;2023-05-16T10:59:43;2.75;;;0.70;;
39948;SDS011;29070;48.102;-1.652;2023-05-16T11:04:47;2.88;;;0.75;;
39948;SDS011;29070;48.102;-1.652;2023-05-16T11:15:25;4.32;;;1.08;;
39948;SDS011;29070;48.102;-1.652;2023-05-16T11:20:31;5.18;;;1.15;;
39948;SDS011;29070;48.102;-1.652;2023-05-16T11:25:36;3.13;;;1.10;;
39948;SDS011;29070;48.102;-1.652;2023-05-16T11:30:43;4.45;;;0.80;;
39948;SDS011;29070;48.102;-1.652;2023-05-16T11:36:02;4.97;;;0.70;;
39948;SDS011;29070;48.102;-1.652;2023-05-16T11:41:07;4.03;;;1.23;;
39948;SDS011;29070;48.102;-1.652;2023-05-16T11:46:11;5.47;;;1.65;;
39948;SDS011;29070;48.102;-1.652;2023-05-16T11:51:12;3.03;;;1.10;;
39948;SDS011;29070;48.102;-1.652;2023-05-16T11:56:17;4.45;;;0.85;;
39948;SDS011;29070;48.102;-1.652;2023-05-16T12:01:20;2.75;;;0.60;;
39948;SDS011;29070;48.102;-1.652;2023-05-16T12:06:21;3.50;;;0.93;;
39948;SDS011;29070;48.102;-1.652;2023-05-16T12:11:24;2.67;;;0.90;;
39948;SDS011;29070;48.102;-1.652;2023-05-16T12:16:24;1.73;;;0.70;;
39948;SDS011;29070;48.102;-1.652;2023-05-16T12:21:25;2.78;;;0.90;;
39948;SDS011;29070;48.102;-1.652;2023-05-16T12:26:29;5.57;;;1.17;;
39948;SDS011;29070;48.102;-1.652;2023-05-16T12:31:36;2.63;;;0.80;;
39948;SDS011;29070;48.102;-1.652;2023-05-16T12:36:38;2.38;;;0.90;;
39948;SDS011;29070;48.102;-1.652;2023-05-16T12:41:39;3.37;;;0.90;;
39948;SDS011;29070;48.102;-1.652;2023-05-16T12:46:42;1.10;;;0.60;;
39948;SDS011;29070;48.102;-1.652;2023-05-16T12:51:50;2.13;;;0.95;;
39948;SDS011;29070;48.102;-1.652;2023-05-16T12:56:51;1.92;;;0.68;;
39948;SDS011;29070;48.102;-1.652;2023-05-16T13:01:51;3.60;;;0.80;;
39948;SDS011;29070;48.102;-1.652;2023-05-16T13:06:52;5.77;;;1.00;;
39948;SDS011;29070;48.102;-1.652;2023-05-16T13:11:53;3.80;;;0.98;;
39948;SDS011;29070;48.102;-1.652;2023-05-16T13:16:53;3.83;;;0.70;;
39948;SDS011;29070;48.102;-1.652;2023-05-16T13:21:54;3.50;;;0.90;;
39948;SDS011;29070;48.102;-1.652;2023-05-16T13:26:55;4.80;;;1.23;;
39948;SDS011;29070;48.102;-1.652;2023-05-16T13:31:55;2.30;;;0.80;;
39948;SDS011;29070;48.102;-1.652;2023-05-16T13:36:55;3.78;;;0.85;;
39948;SDS011;29070;48.102;-1.652;2023-05-16T13:41:56;5.60;;;1.00;;
39948;SDS011;29070;48.102;-1.652;2023-05-16T13:46:56;5.77;;;0.80;;
39948;SDS011;29070;48.102;-1.652;2023-05-16T13:51:57;3.10;;;0.90;;
39948;SDS011;29070;48.102;-1.652;2023-05-16T13:56:57;2.60;;;0.73;;
39948;SDS011;29070;48.102;-1.652;2023-05-16T14:01:58;3.53;;;0.90;;
39948;SDS011;29070;48.102;-1.652;2023-05-16T14:06:58;4.43;;;1.23;;
39948;SDS011;29070;48.102;-1.652;2023-05-16T14:11:59;2.40;;;0.70;;
39948;SDS011;29070;48.102;-1.652;2023-05-16T14:17:02;3.33;;;0.95;;
39948;SDS011;29070;48.102;-1.652;2023-05-16T14:22:03;2.03;;;0.63;;
39948;SDS011;29070;48.102;-1.652;2023-05-16T14:27:03;5.55;;;0.80;;
39948;SDS011;29070;48.102;-1.652;2023-05-16T14:32:04;3.33;;;0.73;;
39948;SDS011;29070;48.102;-1.652;2023-05-16T14:37:04;6.03;;;0.73;;
39948;SDS011;29070;48.102;-1.652;2023-05-16T14:42:05;2.67;;;0.80;;
39948;SDS011;29070;48.102;-1.652;2023-05-16T14:47:05;5.03;;;1.00;;
39948;SDS011;29070;48.102;-1.652;2023-05-16T14:52:06;4.93;;;0.90;;
39948;SDS011;29070;48.102;-1.652;2023-05-16T14:57:06;5.67;;;1.30;;
39948;SDS011;29070;48.102;-1.652;2023-05-16T15:02:07;2.53;;;0.60;;
39948;SDS011;29070;48.102;-1.652;2023-05-16T15:07:07;4.40;;;1.00;;
39948;SDS011;29070;48.102;-1.652;2023-05-16T15:12:07;4.13;;;0.90;;
39948;SDS011;29070;48.102;-1.652;2023-05-16T15:17:08;4.55;;;0.95;;
39948;SDS011;29070;48.102;-1.652;2023-05-16T15:22:08;3.13;;;1.00;;
39948;SDS011;29070;48.102;-1.652;2023-05-16T15:27:09;2.25;;;0.80;;
39948;SDS011;29070;48.102;-1.652;2023-05-16T15:32:10;3.10;;;0.82;;
39948;SDS011;29070;48.102;-1.652;2023-05-16T15:37:12;3.47;;;1.17;;
39948;SDS011;29070;48.102;-1.652;2023-05-16T15:42:12;4.87;;;1.07;;
39948;SDS011;29070;48.102;-1.652;2023-05-16T15:47:13;4.35;;;1.10;;
39948;SDS011;29070;48.102;-1.652;2023-05-16T15:52:13;6.43;;;0.97;;
39948;SDS011;29070;48.102;-1.652;2023-05-16T15:57:14;4.65;;;1.00;;
39948;SDS011;29070;48.102;-1.652;2023-05-16T16:02:14;4.87;;;0.83;;
39948;SDS011;29070;48.102;-1.652;2023-05-16T16:07:19;2.87;;;0.77;;
39948;SDS011;29070;48.102;-1.652;2023-05-16T16:12:20;4.10;;;0.90;;
39948;SDS011;29070;48.102;-1.652;2023-05-16T16:17:21;3.25;;;0.80;;
39948;SDS011;29070;48.102;-1.652;2023-05-16T16:22:21;7.90;;;1.00;;
39948;SDS011;29070;48.102;-1.652;2023-05-16T16:27:22;4.60;;;0.80;;
39948;SDS011;29070;48.102;-1.652;2023-05-16T16:32:22;4.67;;;1.07;;
39948;SDS011;29070;48.102;-1.652;2023-05-16T16:37:23;9.00;;;0.97;;
39948;SDS011;29070;48.102;-1.652;2023-05-16T16:42:23;7.63;;;1.27;;
39948;SDS011;29070;48.102;-1.652;2023-05-16T16:47:29;4.78;;;0.77;;
39948;SDS011;29070;48.102;-1.652;2023-05-16T16:52:31;5.90;;;0.63;;
39948;SDS011;29070;48.102;-1.652;2023-05-16T16:57:32;5.18;;;1.05;;
39948;SDS011;29070;48.102;-1.652;2023-05-16T17:02:32;6.20;;;1.07;;
39948;SDS011;29070;48.102;-1.652;2023-05-16T17:07:33;4.60;;;0.93;;
39948;SDS011;29070;48.102;-1.652;2023-05-16T17:12:33;4.50;;;0.57;;
39948;SDS011;29070;48.102;-1.652;2023-05-16T17:17:34;4.70;;;0.65;;
39948;SDS011;29070;48.102;-1.652;2023-05-16T17:22:34;2.95;;;0.70;;
39948;SDS011;29070;48.102;-1.652;2023-05-16T17:27:35;2.85;;;0.57;;
39948;SDS011;29070;48.102;-1.652;2023-05-16T17:32:36;2.72;;;0.77;;
39948;SDS011;29070;48.102;-1.652;2023-05-16T17:37:36;3.65;;;0.80;;
39948;SDS011;29070;48.102;-1.652;2023-05-16T17:42:37;5.33;;;0.90;;
39948;SDS011;29070;48.102;-1.652;2023-05-16T17:47:37;4.60;;;1.20;;
39948;SDS011;29070;48.102;-1.652;2023-05-16T17:52:38;1.50;;;0.30;;
39948;SDS011;29070;48.102;-1.652;2023-05-16T17:57:39;3.42;;;0.52;;
39948;SDS011;29070;48.102;-1.652;2023-05-16T18:02:40;3.67;;;0.50;;
39948;SDS011;29070;48.102;-1.652;2023-05-16T18:07:40;3.63;;;0.80;;
39948;SDS011;29070;48.102;-1.652;2023-05-16T18:12:41;2.50;;;0.52;;
39948;SDS011;29070;48.102;-1.652;2023-05-16T18:17:41;2.78;;;0.50;;
39948;SDS011;29070;48.102;-1.652;2023-05-16T18:22:42;3.57;;;0.60;;
39948;SDS011;29070;48.102;-1.652;2023-05-16T18:27:42;3.38;;;0.60;;
39948;SDS011;29070;48.102;-1.652;2023-05-16T18:32:43;3.63;;;0.77;;
39948;SDS011;29070;48.102;-1.652;2023-05-16T18:37:43;5.25;;;1.00;;
39948;SDS011;29070;48.102;-1.652;2023-05-16T18:42:44;5.22;;;0.80;;
39948;SDS011;29070;48.102;-1.652;2023-05-16T18:47:45;4.80;;;1.00;;
39948;SDS011;29070;48.102;-1.652;2023-05-16T18:52:45;5.57;;;1.48;;
39948;SDS011;29070;48.102;-1.652;2023-05-16T18:57:46;4.07;;;1.00;;
39948;SDS011;29070;48.102;-1.652;2023-05-16T19:02:46;5.95;;;1.10;;
39948;SDS011;29070;48.102;-1.652;2023-05-16T19:07:47;4.53;;;1.00;;
39948;SDS011;29070;48.102;-1.652;2023-05-16T19:12:48;5.40;;;1.20;;
39948;SDS011;29070;48.102;-1.652;2023-05-16T19:17:48;4.35;;;0.90;;
39948;SDS011;29070;48.102;-1.652;2023-05-16T19:22:48;3.13;;;1.23;;
39948;SDS011;29070;48.102;-1.652;2023-05-16T19:27:49;4.32;;;1.05;;
39948;SDS011;29070;48.102;-1.652;2023-05-16T19:32:49;3.83;;;0.90;;
39948;SDS011;29070;48.102;-1.652;2023-05-16T19:37:50;4.72;;;1.27;;
39948;SDS011;29070;48.102;-1.652;2023-05-16T19:42:50;6.93;;;0.90;;
39948;SDS011;29070;48.102;-1.652;2023-05-16T19:47:51;6.77;;;1.20;;
39948;SDS011;29070;48.102;-1.652;2023-05-16T19:52:51;7.90;;;1.27;;
39948;SDS011;29070;48.102;-1.652;2023-05-16T19:57:52;4.57;;;1.50;;
39948;SDS011;29070;48.102;-1.652;2023-05-16T20:02:52;7.50;;;1.60;;
39948;SDS011;29070;48.102;-1.652;2023-05-16T20:07:52;5.80;;;1.42;;
39948;SDS011;29070;48.102;-1.652;2023-05-16T20:12:54;8.60;;;1.70;;
39948;SDS011;29070;48.102;-1.652;2023-05-16T20:17:54;5.80;;;1.42;;
39948;SDS011;29070;48.102;-1.652;2023-05-16T20:22:55;7.43;;;1.38;;
39948;SDS011;29070;48.102;-1.652;2023-05-16T20:27:55;4.27;;;1.47;;
39948;SDS011;29070;48.102;-1.652;2023-05-16T20:32:57;4.45;;;1.65;;
39948;SDS011;29070;48.102;-1.652;2023-05-16T20:37:58;4.00;;;1.55;;
39948;SDS011;29070;48.102;-1.652;2023-05-16T20:42:58;8.13;;;1.30;;
39948;SDS011;29070;48.102;-1.652;2023-05-16T20:47:59;10.77;;;2.70;;
39948;SDS011;29070;48.102;-1.652;2023-05-16T20:52:59;8.57;;;1.83;;
39948;SDS011;29070;48.102;-1.652;2023-05-16T20:57:59;7.20;;;1.73;;
39948;SDS011;29070;48.102;-1.652;2023-05-16T21:03:00;8.80;;;1.77;;
39948;SDS011;29070;48.102;-1.652;2023-05-16T21:08:00;7.47;;;1.50;;
39948;SDS011;29070;48.102;-1.652;2023-05-16T21:13:00;5.97;;;2.10;;
39948;SDS011;29070;48.102;-1.652;2023-05-16T21:18:01;7.00;;;1.87;;
39948;SDS011;29070;48.102;-1.652;2023-05-16T21:23:01;7.40;;;1.70;;
39948;SDS011;29070;48.102;-1.652;2023-05-16T21:28:01;6.40;;;1.73;;
39948;SDS011;29070;48.102;-1.652;2023-05-16T21:33:02;7.90;;;1.50;;
39948;SDS011;29070;48.102;-1.652;2023-05-16T21:38:03;5.93;;;1.77;;
39948;SDS011;29070;48.102;-1.652;2023-05-16T21:43:03;11.87;;;2.33;;
39948;SDS011;29070;48.102;-1.652;2023-05-16T21:48:03;5.80;;;2.17;;
39948;SDS011;29070;48.102;-1.652;2023-05-16T21:53:05;3.75;;;1.83;;
39948;SDS011;29070;48.102;-1.652;2023-05-16T21:58:05;6.33;;;2.00;;
39948;SDS011;29070;48.102;-1.652;2023-05-16T22:03:05;4.30;;;1.23;;
39948;SDS011;29070;48.102;-1.652;2023-05-16T22:08:06;11.30;;;1.40;;
39948;SDS011;29070;48.102;-1.652;2023-05-16T22:13:06;6.57;;;1.38;;
39948;SDS011;29070;48.102;-1.652;2023-05-16T22:18:07;5.32;;;1.90;;
39948;SDS011;29070;48.102;-1.652;2023-05-16T22:23:07;7.13;;;2.00;;
39948;SDS011;29070;48.102;-1.652;2023-05-16T22:28:08;4.63;;;1.83;;
39948;SDS011;29070;48.102;-1.652;2023-05-16T22:33:08;5.37;;;1.60;;
39948;SDS011;29070;48.102;-1.652;2023-05-16T22:38:08;3.00;;;1.73;;
39948;SDS011;29070;48.102;-1.652;2023-05-16T22:43:09;8.00;;;2.03;;
39948;SDS011;29070;48.102;-1.652;2023-05-16T22:48:09;3.10;;;1.40;;
39948;SDS011;29070;48.102;-1.652;2023-05-16T22:53:09;3.43;;;1.23;;
39948;SDS011;29070;48.102;-1.652;2023-05-16T22:58:10;3.73;;;1.30;;
39948;SDS011;29070;48.102;-1.652;2023-05-16T23:03:10;6.37;;;1.23;;
39948;SDS011;29070;48.102;-1.652;2023-05-16T23:08:10;5.63;;;1.10;;
39948;SDS011;29070;48.102;-1.652;2023-05-16T23:13:11;2.20;;;1.43;;
39948;SDS011;29070;48.102;-1.652;2023-05-16T23:18:11;4.85;;;1.27;;
39948;SDS011;29070;48.102;-1.652;2023-05-16T23:23:12;4.03;;;1.07;;
39948;SDS011;29070;48.102;-1.652;2023-05-16T23:28:12;6.03;;;1.00;;
39948;SDS011;29070;48.102;-1.652;2023-05-16T23:33:13;4.25;;;1.30;;
39948;SDS011;29070;48.102;-1.652;2023-05-16T23:38:14;2.27;;;1.33;;
39948;SDS011;29070;48.102;-1.652;2023-05-16T23:43:14;6.03;;;1.48;;
39948;SDS011;29070;48.102;-1.652;2023-05-16T23:48:15;6.82;;;1.52;;
39948;SDS011;29070;48.102;-1.652;2023-05-16T23:53:15;5.63;;;1.00;;
39948;SDS011;29070;48.102;-1.652;2023-05-16T23:58:15;5.77;;;1.67;;
